Terminal Aerodrome Forecast
Issued by NWS

Home | Current Version | Previous Version | Graphics & Text | Print | Product List | Glossary On
Versions: 1 2 3 4 5 6 7 8 9 10 11 12 13 14 15 16 17
177
FTUS41 KCLE 200911 AAA
TAFFDY
TAF AMD
KFDY 200911Z 2009/2106 VRB03KT P6SM SCT250
     FM201100 08003KT 3SM BR BKN250
      TEMPO 2011/2012 2SM BR
     FM201600 11007KT P6SM BKN250=

USA.gov is the U.S. government's official web portal to all federal, state and local government web resources and services.